Time;durP1;ratioP1;P1;durP2;ratioP2;P2;SDS_P1;SDS_P2;PMS_P1;PMS_P2;Temp;Humidity;BMP_temperature;BMP_pressure;BME280_temperature;BME280_humidity;BME280_pressure;Samples;Min_cycle;Max_cycle;Signal;HPM_P1;HPM_P2
2023/08/17 00:02:12;;;;;;;7.00;3.60;;;14.20;99.90;;;;;;5056423;28;20045;-25
2023/08/17 00:04:38;;;;;;;6.75;3.88;;;14.20;99.90;;;;;;5055766;28;20091;-25
2023/08/17 00:07:04;;;;;;;9.98;3.97;;;14.10;99.90;;;;;;5055705;28;20466;-25
2023/08/17 00:09:30;;;;;;;7.60;4.03;;;14.00;99.90;;;;;;5062781;28;20447;-25
2023/08/17 00:11:56;;;;;;;7.50;3.92;;;14.00;99.90;;;;;;5076118;28;20083;-25
2023/08/17 00:14:22;;;;;;;10.10;4.13;;;13.90;99.90;;;;;;5076388;28;20125;-25
2023/08/17 00:16:50;;;;;;;8.73;4.57;;;13.90;99.90;;;;;;5074781;28;20123;-24
2023/08/17 00:19:15;;;;;;;11.93;4.35;;;13.90;99.90;;;;;;5072815;28;20098;-24
2023/08/17 00:21:41;;;;;;;6.90;3.88;;;13.80;99.90;;;;;;5037890;28;20045;-25
2023/08/17 00:24:07;;;;;;;12.00;3.90;;;13.90;99.90;;;;;;5055395;28;20052;-25
2023/08/17 00:26:33;;;;;;;5.85;4.20;;;13.90;99.90;;;;;;5038061;28;20167;-25
2023/08/17 00:28:59;;;;;;;13.65;3.63;;;13.90;99.90;;;;;;5054936;28;20136;-25
2023/08/17 00:31:25;;;;;;;9.32;4.50;;;14.00;99.90;;;;;;5037955;28;20041;-25
2023/08/17 00:33:50;;;;;;;8.98;4.10;;;14.00;99.90;;;;;;5068814;28;20045;-24
2023/08/17 00:36:16;;;;;;;11.25;4.80;;;14.00;99.90;;;;;;5075079;28;20044;-25
2023/08/17 00:38:42;;;;;;;7.75;3.70;;;14.00;99.90;;;;;;5075649;28;20169;-25
2023/08/17 00:41:07;;;;;;;5.07;3.33;;;14.00;99.90;;;;;;5065568;28;20041;-24
2023/08/17 00:43:33;;;;;;;8.15;3.85;;;14.10;99.90;;;;;;5054982;28;20051;-25
2023/08/17 00:45:59;;;;;;;8.48;3.88;;;14.00;99.90;;;;;;5055287;28;20052;-25
2023/08/17 00:48:28;;;;;;;6.43;3.45;;;14.10;99.90;;;;;;5054916;28;20093;-24
2023/08/17 00:50:55;;;;;;;8.55;3.83;;;14.10;99.90;;;;;;5054903;28;20076;-24
2023/08/17 00:53:21;;;;;;;15.80;4.32;;;14.10;99.90;;;;;;5054559;28;20120;-24
2023/08/17 00:55:47;;;;;;;10.10;4.65;;;14.00;99.90;;;;;;5054760;28;20561;-25
2023/08/17 00:58:14;;;;;;;8.45;4.18;;;14.00;99.90;;;;;;5055344;28;20144;-25
2023/08/17 01:00:40;;;;;;;8.82;3.78;;;14.00;99.90;;;;;;5055487;28;20044;-25
2023/08/17 01:03:06;;;;;;;11.07;4.05;;;14.00;99.90;;;;;;5067929;28;20498;-25
2023/08/17 01:05:32;;;;;;;6.32;3.75;;;14.00;99.90;;;;;;5055080;28;20123;-25
2023/08/17 01:07:59;;;;;;;5.88;3.92;;;13.90;99.90;;;;;;5054527;28;20392;-25
2023/08/17 01:10:33;;;;;;;9.50;4.38;;;13.90;99.90;;;;;;5053296;28;20052;-25
2023/08/17 01:13:09;;;;;;;8.68;3.65;;;13.80;99.90;;;;;;5054334;28;20096;-25
2023/08/17 01:15:45;;;;;;;7.00;3.60;;;13.70;99.90;;;;;;5054281;28;20366;-24
2023/08/17 01:18:24;;;;;;;7.53;3.55;;;13.70;99.90;;;;;;5054425;28;20136;-25
2023/08/17 01:20:51;;;;;;;11.27;3.78;;;13.60;99.90;;;;;;5054318;28;20084;-24
2023/08/17 01:23:16;;;;;;;8.85;4.57;;;13.50;99.90;;;;;;5052539;28;20048;-24
2023/08/17 01:25:42;;;;;;;7.90;4.15;;;13.50;99.90;;;;;;5054214;28;20045;-24
2023/08/17 01:28:08;;;;;;;9.30;4.40;;;13.50;99.90;;;;;;5052987;28;20045;-24
2023/08/17 01:30:53;;;;;;;10.57;4.55;;;13.50;99.90;;;;;;5054099;28;20137;-25
2023/08/17 01:33:33;;;;;;;11.55;4.60;;;13.40;99.90;;;;;;5057162;28;20080;-24
2023/08/17 01:36:06;;;;;;;11.32;4.55;;;13.50;99.90;;;;;;5053979;28;20049;-24
2023/08/17 01:38:34;;;;;;;6.45;4.13;;;13.40;99.90;;;;;;5053749;28;20044;-24
2023/08/17 01:41:02;;;;;;;10.85;4.43;;;13.30;99.90;;;;;;5053921;28;20048;-25
2023/08/17 01:43:28;;;;;;;11.63;4.65;;;13.30;99.90;;;;;;5054497;28;20123;-24
2023/08/17 01:45:54;;;;;;;12.30;4.30;;;13.30;99.90;;;;;;5073385;28;20045;-24
2023/08/17 01:48:20;;;;;;;12.45;4.70;;;13.20;99.90;;;;;;5071938;28;20127;-24
2023/08/17 01:50:46;;;;;;;10.55;5.00;;;13.20;99.90;;;;;;5073759;28;20040;-24
2023/08/17 01:53:11;;;;;;;11.10;5.10;;;13.10;99.90;;;;;;5073818;28;20044;-25
2023/08/17 01:55:37;;;;;;;7.45;4.75;;;13.10;99.90;;;;;;5071378;28;20536;-24
2023/08/17 01:58:03;;;;;;;11.00;4.85;;;13.10;99.90;;;;;;5074131;28;20056;-24
2023/08/17 02:00:29;;;;;;;11.13;4.93;;;13.10;99.90;;;;;;5074270;28;20132;-25
2023/08/17 02:02:55;;;;;;;13.90;6.00;;;13.10;99.90;;;;;;5073718;28;20055;-25
2023/08/17 02:05:20;;;;;;;12.30;4.93;;;13.10;99.90;;;;;;5070296;28;20040;-24
2023/08/17 02:07:46;;;;;;;11.30;4.90;;;13.10;99.90;;;;;;5073660;28;20080;-25
2023/08/17 02:10:12;;;;;;;12.30;4.68;;;13.20;99.90;;;;;;5074099;28;20080;-24
2023/08/17 02:12:38;;;;;;;11.48;5.15;;;13.20;99.90;;;;;;5072669;28;20040;-24
2023/08/17 02:15:04;;;;;;;9.60;5.10;;;13.20;99.90;;;;;;5073839;28;20101;-22
2023/08/17 02:17:29;;;;;;;10.27;5.15;;;13.20;99.90;;;;;;5072325;28;20052;-24
2023/08/17 02:19:55;;;;;;;12.35;5.25;;;13.20;99.90;;;;;;5073553;28;20479;-25
2023/08/17 02:22:21;;;;;;;10.75;4.70;;;13.20;99.90;;;;;;5074109;28;20390;-24
2023/08/17 02:24:46;;;;;;;8.68;4.30;;;13.20;99.90;;;;;;5073498;28;20048;-25
2023/08/17 02:27:12;;;;;;;6.18;4.28;;;13.10;99.90;;;;;;5059024;28;20048;-24
2023/08/17 02:29:39;;;;;;;12.70;6.45;;;13.10;99.90;;;;;;5052103;28;20045;-25
2023/08/17 02:32:05;;;;;;;12.80;5.90;;;13.20;99.90;;;;;;5053389;28;20052;-24
2023/08/17 02:34:30;;;;;;;12.88;5.55;;;13.20;99.90;;;;;;5052378;28;20049;-25
2023/08/17 02:36:56;;;;;;;13.25;4.82;;;13.20;99.90;;;;;;5057023;28;20044;-24
2023/08/17 02:39:22;;;;;;;8.57;4.88;;;13.20;99.90;;;;;;5074206;28;20116;-25
2023/08/17 02:41:49;;;;;;;12.25;5.15;;;13.20;99.90;;;;;;5077093;28;20433;-24
2023/08/17 02:44:15;;;;;;;11.38;5.32;;;13.30;99.90;;;;;;5076938;28;20493;-24
2023/08/17 02:46:41;;;;;;;7.82;4.45;;;13.40;99.90;;;;;;5077748;28;20135;-24
2023/08/17 02:49:06;;;;;;;12.52;5.38;;;13.40;99.90;;;;;;5075298;28;20051;-24
2023/08/17 02:51:32;;;;;;;12.02;5.70;;;13.40;99.90;;;;;;5077699;28;20041;-24
2023/08/17 02:53:58;;;;;;;9.13;5.18;;;13.40;99.90;;;;;;5077061;28;20045;-24
2023/08/17 02:56:24;;;;;;;7.90;4.00;;;13.40;99.90;;;;;;5076817;28;20106;-24
2023/08/17 02:58:49;;;;;;;11.82;5.22;;;13.30;99.90;;;;;;5074401;28;20132;-24
2023/08/17 03:01:15;;;;;;;12.05;4.72;;;13.30;99.90;;;;;;5076947;28;20087;-24
2023/08/17 03:03:41;;;;;;;11.77;4.78;;;13.20;99.90;;;;;;5076901;28;20040;-24
2023/08/17 03:06:08;;;;;;;9.52;5.13;;;13.20;99.90;;;;;;5060128;28;20087;-24
2023/08/17 03:08:34;;;;;;;11.43;4.70;;;13.10;99.90;;;;;;5069347;28;20045;-24
2023/08/17 03:10:59;;;;;;;8.05;4.85;;;13.10;99.90;;;;;;5056690;28;20441;-24
2023/08/17 03:13:25;;;;;;;13.20;6.90;;;13.00;99.90;;;;;;5055763;28;20077;-24
2023/08/17 03:15:51;;;;;;;13.82;6.28;;;13.00;99.90;;;;;;5055739;28;20074;-24
2023/08/17 03:18:16;;;;;;;12.50;6.20;;;12.90;99.90;;;;;;5056026;28;20423;-24
2023/08/17 03:20:44;;;;;;;12.27;6.22;;;12.90;99.90;;;;;;5072718;28;20051;-24
2023/08/17 03:23:10;;;;;;;13.63;6.35;;;12.90;99.90;;;;;;5076521;28;20552;-24
2023/08/17 03:25:37;;;;;;;12.32;6.72;;;12.90;99.90;;;;;;5076541;28;20044;-24
2023/08/17 03:28:03;;;;;;;11.27;5.57;;;12.90;99.90;;;;;;5075477;28;20087;-24
2023/08/17 03:30:29;;;;;;;11.85;6.72;;;12.90;99.90;;;;;;5064254;28;20045;-24
2023/08/17 03:32:54;;;;;;;13.48;6.55;;;12.80;99.90;;;;;;5056370;28;20052;-24
2023/08/17 03:35:20;;;;;;;15.80;6.57;;;12.80;99.90;;;;;;5056882;28;20040;-24
2023/08/17 03:37:46;;;;;;;13.35;6.72;;;12.80;99.90;;;;;;5055235;28;20056;-24
2023/08/17 03:40:12;;;;;;;12.93;5.82;;;12.90;99.90;;;;;;5058622;28;20037;-24
2023/08/17 03:42:37;;;;;;;11.80;6.07;;;12.90;99.90;;;;;;5076147;28;20040;-24
2023/08/17 03:45:04;;;;;;;13.70;6.80;;;12.90;99.90;;;;;;5076138;28;20047;-24
2023/08/17 03:47:30;;;;;;;10.98;6.20;;;13.00;99.90;;;;;;5076134;28;20158;-24
2023/08/17 03:49:57;;;;;;;13.43;6.38;;;13.00;99.90;;;;;;5075943;28;20123;-24
2023/08/17 03:52:22;;;;;;;9.75;5.80;;;13.00;99.90;;;;;;5062082;28;20064;-24
2023/08/17 03:54:48;;;;;;;11.60;5.38;;;13.00;99.90;;;;;;5055680;28;20491;-24
2023/08/17 03:57:14;;;;;;;10.18;5.57;;;13.00;99.90;;;;;;5055600;28;20083;-24
2023/08/17 03:59:41;;;;;;;9.57;4.95;;;13.10;99.90;;;;;;5054721;28;20055;-24
2023/08/17 04:02:07;;;;;;;8.77;5.07;;;13.10;99.90;;;;;;5064203;28;20119;-24
2023/08/17 04:04:32;;;;;;;10.65;5.07;;;13.10;99.90;;;;;;5075904;28;20136;-24
2023/08/17 04:06:58;;;;;;;7.65;4.80;;;13.10;99.90;;;;;;5074510;28;20083;-24
2023/08/17 04:09:24;;;;;;;12.40;4.55;;;13.20;99.90;;;;;;5075695;28;20037;-24
2023/08/17 04:11:49;;;;;;;8.82;3.97;;;13.20;99.90;;;;;;5072666;28;20442;-26
2023/08/17 04:14:15;;;;;;;9.35;4.07;;;13.30;99.90;;;;;;5056423;28;20497;-26
2023/08/17 04:16:41;;;;;;;10.95;4.63;;;13.30;99.90;;;;;;5055552;28;20402;-27
2023/08/17 04:19:07;;;;;;;7.63;3.42;;;13.30;99.90;;;;;;5055767;28;20390;-27
2023/08/17 04:21:33;;;;;;;6.68;3.53;;;13.40;99.90;;;;;;5055490;28;20049;-26
2023/08/17 04:23:59;;;;;;;8.25;3.63;;;13.40;99.90;;;;;;5054351;28;20116;-27
2023/08/17 04:26:24;;;;;;;9.88;4.38;;;13.40;99.90;;;;;;5055419;28;20064;-27
2023/08/17 04:28:50;;;;;;;8.07;4.05;;;13.40;99.90;;;;;;5056154;28;20174;-26
2023/08/17 04:31:19;;;;;;;6.90;3.58;;;13.40;99.90;;;;;;5055207;28;20471;-27
2023/08/17 04:33:45;;;;;;;7.05;3.92;;;13.40;99.90;;;;;;5062727;28;20047;-25
2023/08/17 04:36:10;;;;;;;7.97;3.70;;;13.30;99.90;;;;;;5074126;28;20048;-25
2023/08/17 04:38:36;;;;;;;44.03;5.30;;;13.30;99.90;;;;;;5075136;28;20047;-27
2023/08/17 04:41:02;;;;;;;11.40;4.40;;;13.30;99.90;;;;;;5075099;28;20075;-27
2023/08/17 04:43:28;;;;;;;10.00;4.20;;;13.30;99.90;;;;;;5072377;28;20127;-25
2023/08/17 04:45:53;;;;;;;6.20;3.55;;;13.30;99.90;;;;;;5055553;28;20463;-26
2023/08/17 04:48:19;;;;;;;8.55;3.17;;;13.40;99.90;;;;;;5037434;28;20103;-27
2023/08/17 04:50:45;;;;;;;9.80;4.07;;;13.40;99.90;;;;;;5053950;28;20072;-27
2023/08/17 04:53:10;;;;;;;9.73;3.83;;;13.50;99.90;;;;;;5054881;28;20122;-26
2023/08/17 04:55:36;;;;;;;6.95;2.80;;;13.50;99.90;;;;;;5067792;28;20551;-27
2023/08/17 04:58:02;;;;;;;6.82;2.88;;;13.50;99.90;;;;;;5074260;28;20055;-26
2023/08/17 05:00:28;;;;;;;8.40;2.95;;;13.50;99.90;;;;;;5073748;28;20048;-27
2023/08/17 05:02:57;;;;;;;5.55;2.33;;;13.50;99.90;;;;;;5073731;28;20109;-26
2023/08/17 05:05:23;;;;;;;9.93;2.33;;;13.60;99.90;;;;;;5072761;28;20146;-25
2023/08/17 05:07:49;;;;;;;8.57;2.47;;;13.60;99.90;;;;;;5073571;28;20100;-26
2023/08/17 05:10:15;;;;;;;6.88;2.42;;;13.70;99.90;;;;;;5075281;28;20391;-27
2023/08/17 05:12:41;;;;;;;7.63;2.25;;;13.80;99.90;;;;;;5073231;28;20090;-26
2023/08/17 05:15:07;;;;;;;8.57;2.33;;;13.80;99.90;;;;;;5072424;28;20052;-25
2023/08/17 05:17:33;;;;;;;5.88;2.25;;;13.80;99.90;;;;;;5068069;28;20048;-27
2023/08/17 05:19:58;;;;;;;4.25;1.90;;;13.80;99.90;;;;;;5036811;28;20053;-27
2023/08/17 05:22:24;;;;;;;6.03;2.20;;;13.90;99.90;;;;;;5055114;28;20451;-27
2023/08/17 05:24:50;;;;;;;6.25;1.88;;;14.00;99.90;;;;;;5054264;28;20049;-26
2023/08/17 05:27:15;;;;;;;6.22;1.85;;;14.00;99.90;;;;;;5054043;28;20049;-27
2023/08/17 05:29:41;;;;;;;5.90;1.92;;;14.10;99.90;;;;;;5054120;28;20045;-26
2023/08/17 05:32:07;;;;;;;4.38;2.17;;;14.10;99.90;;;;;;5053154;28;20098;-27
2023/08/17 05:34:33;;;;;;;9.93;2.63;;;14.20;99.90;;;;;;5054080;28;20072;-26
2023/08/17 05:36:58;;;;;;;4.07;2.00;;;14.30;99.90;;;;;;5054081;28;20403;-26
2023/08/17 05:39:24;;;;;;;9.50;2.13;;;14.30;99.90;;;;;;5052353;28;20466;-26
2023/08/17 05:41:50;;;;;;;9.00;2.53;;;14.40;99.90;;;;;;5053631;28;20049;-27
2023/08/17 05:44:16;;;;;;;7.78;3.10;;;14.50;99.90;;;;;;5054219;28;20052;-26
2023/08/17 05:46:43;;;;;;;6.32;2.00;;;14.60;99.90;;;;;;5054044;28;20055;-25
2023/08/17 05:49:08;;;;;;;7.93;1.52;;;14.70;99.90;;;;;;5073817;28;20044;-27
2023/08/17 05:51:34;;;;;;;5.97;1.40;;;14.80;99.90;;;;;;5073895;28;20083;-27
2023/08/17 05:54:00;;;;;;;6.68;2.55;;;14.90;99.90;;;;;;5072655;28;20045;-27
2023/08/17 05:56:26;;;;;;;4.63;1.80;;;15.00;99.90;;;;;;5069011;28;20063;-27
2023/08/17 05:58:54;;;;;;;5.80;1.40;;;15.20;99.90;;;;;;5060923;28;20048;-28
2023/08/17 06:01:20;;;;;;;4.82;1.63;;;15.30;99.90;;;;;;5052497;28;20045;-27
2023/08/17 06:03:45;;;;;;;3.92;1.65;;;15.40;99.90;;;;;;5053551;28;20061;-27
2023/08/17 06:06:11;;;;;;;3.97;1.40;;;15.50;99.90;;;;;;5054163;28;20056;-27
2023/08/17 06:08:37;;;;;;;7.68;2.42;;;15.60;99.90;;;;;;5054205;28;20557;-26
2023/08/17 06:11:03;;;;;;;4.75;1.67;;;15.70;99.90;;;;;;5053823;28;20421;-27
2023/08/17 06:13:28;;;;;;;6.45;1.90;;;15.80;99.90;;;;;;5054118;28;20055;-26
2023/08/17 06:15:56;;;;;;;5.40;1.73;;;15.90;99.90;;;;;;5069638;28;20040;-25
2023/08/17 06:18:22;;;;;;;6.90;1.95;;;15.90;99.90;;;;;;5035802;28;20123;-27
2023/08/17 06:20:50;;;;;;;8.60;2.20;;;16.00;99.90;;;;;;5052535;28;20133;-26
2023/08/17 06:23:16;;;;;;;6.57;1.80;;;16.10;99.90;;;;;;5054289;28;20080;-27
2023/08/17 06:25:42;;;;;;;4.97;1.80;;;16.20;99.90;;;;;;5035680;28;20479;-27
2023/08/17 06:28:07;;;;;;;4.90;2.03;;;16.30;99.90;;;;;;5067838;28;20049;-27
2023/08/17 06:30:33;;;;;;;6.47;1.98;;;16.30;99.90;;;;;;5072273;28;20072;-26
2023/08/17 06:32:59;;;;;;;6.97;1.83;;;16.40;99.90;;;;;;5054876;28;20522;-27
2023/08/17 06:35:25;;;;;;;3.85;1.77;;;16.50;99.90;;;;;;5052396;28;20045;-27
2023/08/17 06:37:51;;;;;;;7.05;1.98;;;16.60;99.90;;;;;;5057058;28;20045;-26
2023/08/17 06:40:17;;;;;;;5.28;2.20;;;16.60;99.90;;;;;;5062520;28;20053;-27
2023/08/17 06:42:42;;;;;;;5.15;1.90;;;16.70;99.90;;;;;;5053356;28;20056;-26
2023/08/17 06:45:08;;;;;;;5.68;1.50;;;16.70;99.90;;;;;;5068841;28;20080;-27
2023/08/17 06:47:34;;;;;;;5.38;1.50;;;16.80;99.90;;;;;;5067868;28;20044;-27
2023/08/17 06:50:00;;;;;;;6.60;2.22;;;16.80;99.90;;;;;;5058780;28;20037;-27
2023/08/17 06:52:26;;;;;;;8.00;2.25;;;16.80;99.90;;;;;;5053722;28;20045;-27
2023/08/17 06:54:51;;;;;;;4.07;1.38;;;16.80;99.90;;;;;;5071553;28;20055;-27
2023/08/17 06:57:18;;;;;;;4.85;1.20;;;16.90;99.90;;;;;;5070888;28;20491;-27
2023/08/17 06:59:45;;;;;;;7.53;1.52;;;17.00;99.90;;;;;;5072133;28;20071;-27
2023/08/17 07:02:11;;;;;;;7.15;2.55;;;17.10;99.90;;;;;;5073370;28;20040;-28
2023/08/17 07:04:37;;;;;;;5.50;1.45;;;17.30;99.90;;;;;;5073626;28;20048;-27
2023/08/17 07:07:03;;;;;;;5.55;0.90;;;17.30;85.20;;;;;;5052402;28;20044;-27
2023/08/17 07:09:29;;;;;;;2.75;0.85;;;17.60;99.90;;;;;;5055243;28;20403;-25
2023/08/17 07:11:54;;;;;;;3.45;1.15;;;17.80;99.90;;;;;;5064781;28;20380;-27
2023/08/17 07:14:20;;;;;;;8.70;1.33;;;18.10;56.60;;;;;;5059528;28;20053;-27
2023/08/17 07:16:46;;;;;;;4.65;1.10;;;18.50;8.90;;;;;;5061109;28;20049;-27
2023/08/17 07:19:13;;;;;;;5.28;0.90;;;18.80;1.00;;;;;;5066967;28;20138;-27
2023/08/17 07:21:39;;;;;;;4.18;0.95;;;19.00;1.00;;;;;;5054538;28;20163;-27
2023/08/17 07:24:13;;;;;;;6.03;0.98;;;19.20;99.90;;;;;;5061199;28;20123;-27
2023/08/17 07:26:39;;;;;;;4.90;0.82;;;19.30;99.90;;;;;;5054457;28;20056;-27
2023/08/17 07:29:04;;;;;;;2.60;0.70;;;19.30;99.90;;;;;;5056172;28;20045;-27
2023/08/17 07:31:31;;;;;;;3.97;1.33;;;19.30;99.90;;;;;;5058699;28;20053;-27
2023/08/17 07:33:56;;;;;;;2.55;0.75;;;19.50;99.90;;;;;;5056144;28;20053;-27
2023/08/17 07:36:22;;;;;;;5.43;0.88;;;19.60;54.10;;;;;;5056008;28;20498;-27
2023/08/17 07:38:48;;;;;;;5.45;0.85;;;19.50;1.00;;;;;;5056226;28;20131;-28
2023/08/17 07:41:13;;;;;;;3.53;0.57;;;19.40;1.00;;;;;;5064132;28;20125;-27
2023/08/17 07:43:39;;;;;;;4.38;0.70;;;19.30;1.00;;;;;;5069635;28;20128;-28
2023/08/17 07:46:05;;;;;;;3.22;0.43;;;19.10;99.90;;;;;;5063638;28;20047;-27
2023/08/17 07:48:33;;;;;;;3.70;0.85;;;19.00;99.90;;;;;;5056244;28;20049;-26
2023/08/17 07:50:59;;;;;;;3.70;0.50;;;18.90;99.90;;;;;;5059034;28;20121;-26
2023/08/17 07:53:25;;;;;;;3.35;0.85;;;18.80;99.90;;;;;;5065695;28;20068;-27
2023/08/17 07:55:51;;;;;;;4.80;0.85;;;18.70;99.90;;;;;;5075044;28;20449;-27
2023/08/17 07:58:17;;;;;;;3.90;0.60;;;18.70;99.90;;;;;;5059576;28;20107;-27
2023/08/17 08:00:42;;;;;;;3.60;0.70;;;18.80;99.90;;;;;;5055890;28;20441;-27
2023/08/17 08:03:08;;;;;;;5.30;1.00;;;18.70;99.90;;;;;;5054668;28;20422;-27
2023/08/17 08:05:34;;;;;;;5.15;0.63;;;18.70;99.90;;;;;;5071542;28;20044;-27
2023/08/17 08:08:00;;;;;;;2.58;0.93;;;18.70;99.90;;;;;;5074589;28;20071;-27
2023/08/17 08:10:27;;;;;;;3.97;0.80;;;18.70;99.90;;;;;;5058097;28;20057;-27
2023/08/17 08:12:52;;;;;;;2.83;1.20;;;18.90;99.90;;;;;;5054699;28;20061;-27
2023/08/17 08:15:18;;;;;;;6.25;1.00;;;18.90;99.90;;;;;;5056134;28;20071;-27
2023/08/17 08:17:44;;;;;;;5.03;0.95;;;19.00;99.90;;;;;;5038032;28;20101;-27
2023/08/17 08:20:11;;;;;;;3.17;0.90;;;19.10;99.90;;;;;;5068990;28;20036;-27
2023/08/17 08:22:37;;;;;;;2.05;0.50;;;19.10;99.90;;;;;;5073541;28;20040;-27
2023/08/17 08:25:03;;;;;;;4.78;1.08;;;19.10;99.90;;;;;;5054288;28;20056;-27
2023/08/17 08:27:28;;;;;;;3.72;0.60;;;19.10;99.90;;;;;;5054153;28;20395;-27
2023/08/17 08:29:54;;;;;;;2.90;0.80;;;19.00;27.00;;;;;;5054809;28;20041;-27
2023/08/17 08:32:20;;;;;;;3.35;0.73;;;19.10;8.80;;;;;;5062301;28;20051;-27
2023/08/17 08:34:45;;;;;;;3.05;0.85;;;19.10;16.30;;;;;;5037713;28;20391;-27
2023/08/17 08:37:11;;;;;;;4.32;0.82;;;19.20;60.00;;;;;;5056958;28;20041;-27
2023/08/17 08:39:53;;;;;;;4.80;0.80;;;19.30;41.10;;;;;;5054801;28;20128;-28
2023/08/17 08:42:23;;;;;;;5.75;1.48;;;19.50;1.00;;;;;;5054782;28;20088;-27
2023/08/17 08:44:50;;;;;;;2.92;0.70;;;19.50;1.00;;;;;;5054097;28;20099;-26
2023/08/17 08:47:17;;;;;;;2.72;0.60;;;19.60;1.00;;;;;;5054701;28;20132;-27
2023/08/17 08:49:55;;;;;;;5.88;1.40;;;19.70;99.90;;;;;;5053653;28;20153;-27
2023/08/17 08:52:23;;;;;;;3.78;0.70;;;19.60;34.20;;;;;;5055125;28;20090;-28
2023/08/17 08:54:53;;;;;;;7.28;1.00;;;19.70;99.90;;;;;;5067295;28;20483;-28
2023/08/17 08:57:19;;;;;;;3.05;0.93;;;19.60;99.90;;;;;;5074281;28;20052;-27
2023/08/17 08:59:46;;;;;;;2.75;0.55;;;19.60;99.90;;;;;;5059419;28;20132;-28
2023/08/17 09:02:16;;;;;;;7.60;1.33;;;19.60;99.90;;;;;;5054686;28;20049;-27
2023/08/17 09:04:45;;;;;;;5.30;1.23;;;19.70;99.90;;;;;;5054633;28;20060;-27
2023/08/17 09:07:17;;;;;;;3.50;0.70;;;19.70;99.90;;;;;;5054610;28;20041;-28
2023/08/17 09:09:44;;;;;;;3.30;1.20;;;19.80;99.90;;;;;;5054464;28;20037;-27
2023/08/17 09:12:10;;;;;;;2.80;0.68;;;20.00;99.90;;;;;;5070885;28;20074;-28
2023/08/17 09:14:37;;;;;;;4.22;0.80;;;20.20;99.90;;;;;;5057031;28;20056;-27
2023/08/17 09:17:04;;;;;;;4.60;0.93;;;20.40;99.90;;;;;;5057051;28;20079;-28
2023/08/17 09:19:32;;;;;;;2.97;0.80;;;20.40;58.40;;;;;;5074948;28;20051;-27
2023/08/17 09:21:59;;;;;;;3.75;0.80;;;20.30;92.80;;;;;;5074263;28;20094;-27
2023/08/17 09:24:33;;;;;;;3.00;1.00;;;20.20;99.90;;;;;;5074225;28;20542;-28
2023/08/17 09:27:00;;;;;;;3.35;0.88;;;20.20;99.90;;;;;;5071207;28;20052;-28
2023/08/17 09:29:26;;;;;;;4.28;1.25;;;20.60;99.90;;;;;;5053149;28;20060;-27
2023/08/17 09:31:51;;;;;;;3.03;0.75;;;21.00;1.00;;;;;;5059860;28;20036;-28
2023/08/17 09:34:19;;;;;;;3.63;0.82;;;21.00;1.00;;;;;;5067314;28;20494;-28
2023/08/17 09:36:48;;;;;;;5.60;0.85;;;21.20;99.90;;;;;;5043043;28;20041;-26
2023/08/17 09:39:17;;;;;;;3.15;1.00;;;21.50;99.90;;;;;;5055591;28;20049;-28
2023/08/17 09:41:44;;;;;;;4.07;0.82;;;22.40;1.00;;;;;;5053060;28;20049;-29
2023/08/17 09:44:11;;;;;;;2.92;0.57;;;23.00;93.40;;;;;;5053566;28;20052;-29
2023/08/17 09:46:37;;;;;;;2.10;0.60;;;23.50;1.00;;;;;;5062323;28;20078;-28
2023/08/17 09:49:04;;;;;;;3.88;0.75;;;23.60;99.90;;;;;;5071767;28;20040;-28
2023/08/17 09:51:30;;;;;;;3.50;0.88;;;23.70;99.90;;;;;;5056496;28;20075;-28
2023/08/17 09:53:57;;;;;;;4.57;0.63;;;24.00;99.90;;;;;;5052706;28;20057;-28
2023/08/17 09:56:24;;;;;;;4.03;0.80;;;24.00;1.00;;;;;;5053714;28;20040;-28
2023/08/17 09:58:50;;;;;;;2.22;0.55;;;24.10;1.00;;;;;;5053198;28;20053;-28
2023/08/17 10:01:17;;;;;;;4.88;0.73;;;23.70;1.00;;;;;;5053680;28;20053;-28
2023/08/17 10:03:45;;;;;;;2.97;0.90;;;23.60;1.00;;;;;;5059344;28;20092;-28
2023/08/17 10:06:15;;;;;;;2.75;0.70;;;23.70;1.00;;;;;;5053675;28;20056;-28
2023/08/17 10:08:48;;;;;;;3.55;0.88;;;23.50;1.00;;;;;;5053690;28;20056;-28
2023/08/17 10:11:18;;;;;;;6.15;0.57;;;23.50;1.00;;;;;;5056917;28;20066;-28
2023/08/17 10:13:59;;;;;;;3.35;0.80;;;23.70;1.00;;;;;;5073245;28;20387;-28
2023/08/17 10:16:39;;;;;;;6.97;1.20;;;23.60;99.90;;;;;;5073558;28;20040;-29
2023/08/17 10:19:13;;;;;;;4.18;1.02;;;23.80;1.00;;;;;;5074142;28;20048;-28
2023/08/17 10:21:50;;;;;;;3.63;0.93;;;24.40;99.90;;;;;;5072644;28;20539;-30
2023/08/17 10:24:17;;;;;;;3.05;0.90;;;24.40;99.90;;;;;;5074388;28;20137;-28
2023/08/17 10:26:44;;;;;;;4.35;0.75;;;24.60;99.90;;;;;;5074022;28;20052;-29
2023/08/17 10:29:10;;;;;;;3.90;0.73;;;24.80;99.90;;;;;;5060545;28;20044;-28
2023/08/17 10:31:38;;;;;;;3.70;0.80;;;24.90;99.90;;;;;;5053453;28;20063;-28
2023/08/17 10:34:04;;;;;;;5.28;1.13;;;25.10;99.90;;;;;;5053412;28;20049;-28
2023/08/17 10:36:34;;;;;;;4.20;0.80;;;25.30;99.90;;;;;;5051838;28;20041;-26
2023/08/17 10:39:19;;;;;;;7.95;1.67;;;24.90;99.90;;;;;;5058088;28;20080;-28
2023/08/17 10:41:48;;;;;;;3.25;0.82;;;24.30;99.90;;;;;;5053421;28;20383;-28
2023/08/17 10:44:14;;;;;;;4.47;0.98;;;23.90;99.90;;;;;;5053300;28;20052;-29
2023/08/17 10:46:40;;;;;;;5.60;1.17;;;23.60;1.00;;;;;;5062074;28;20049;-28
2023/08/17 10:49:24;;;;;;;4.30;1.58;;;23.40;1.00;;;;;;5061606;28;20052;-28
2023/08/17 10:52:09;;;;;;;4.68;0.95;;;23.10;1.00;;;;;;5067390;28;20455;-29
2023/08/17 10:54:42;;;;;;;7.05;1.52;;;22.60;1.00;;;;;;5051487;28;20049;-28
2023/08/17 10:57:32;;;;;;;6.03;1.30;;;22.30;99.90;;;;;;5053198;28;20056;-28
2023/08/17 11:00:07;;;;;;;4.28;0.93;;;22.10;99.90;;;;;;5058764;28;20052;-28
2023/08/17 11:02:34;;;;;;;5.07;1.35;;;21.90;1.00;;;;;;5060741;28;20041;-28
2023/08/17 11:05:04;;;;;;;6.72;1.10;;;21.90;1.00;;;;;;5057944;28;20127;-28
2023/08/17 11:07:45;;;;;;;4.75;1.08;;;21.90;1.00;;;;;;5076895;28;20102;-28
2023/08/17 11:10:31;;;;;;;3.75;0.70;;;22.00;1.00;;;;;;5076740;28;20475;-28
2023/08/17 11:13:01;;;;;;;4.20;1.25;;;22.10;36.20;;;;;;5075431;28;20498;-28
2023/08/17 11:15:38;;;;;;;3.85;0.98;;;22.20;19.90;;;;;;5075546;28;20143;-28
2023/08/17 11:18:08;;;;;;;5.03;1.30;;;22.10;1.00;;;;;;5066281;28;20048;-28
2023/08/17 11:20:36;;;;;;;6.40;0.98;;;22.00;1.00;;;;;;5056652;28;20151;-28
2023/08/17 11:23:02;;;;;;;3.83;1.08;;;22.30;1.00;;;;;;5055343;28;20063;-29
2023/08/17 11:25:28;;;;;;;7.88;1.58;;;22.60;1.00;;;;;;5056605;28;20088;-29
2023/08/17 11:27:54;;;;;;;3.88;1.48;;;23.00;1.00;;;;;;5055684;28;20041;-29
2023/08/17 11:30:22;;;;;;;6.35;0.98;;;23.40;1.00;;;;;;5056358;28;20536;-28
2023/08/17 11:32:51;;;;;;;5.05;1.00;;;23.60;99.90;;;;;;5056438;28;20068;-28
2023/08/17 11:35:17;;;;;;;4.32;0.95;;;23.90;99.90;;;;;;5056388;28;20045;-28
2023/08/17 11:37:43;;;;;;;4.95;1.30;;;24.00;27.70;;;;;;5062218;28;20044;-28
2023/08/17 11:40:13;;;;;;;4.10;0.90;;;23.70;97.40;;;;;;5065724;28;20070;-29
2023/08/17 11:42:39;;;;;;;5.40;1.35;;;23.60;99.90;;;;;;5055224;28;20436;-29
2023/08/17 11:45:06;;;;;;;5.07;1.60;;;23.50;99.90;;;;;;5055934;28;20124;-28
2023/08/17 11:47:32;;;;;;;6.38;1.10;;;23.40;99.90;;;;;;5055027;28;20101;-28
2023/08/17 11:50:06;;;;;;;7.05;1.73;;;23.20;99.90;;;;;;5060898;28;20107;-28
2023/08/17 11:52:36;;;;;;;4.93;1.70;;;22.90;99.90;;;;;;5064813;28;20547;-28
2023/08/17 11:55:05;;;;;;;5.45;1.33;;;22.50;99.90;;;;;;5058899;28;20053;-28
2023/08/17 11:57:32;;;;;;;4.82;1.40;;;22.00;1.00;;;;;;5070655;28;20060;-29
2023/08/17 11:59:59;;;;;;;5.07;1.50;;;21.90;99.90;;;;;;5054792;28;20052;-28
2023/08/17 12:02:26;;;;;;;8.93;1.58;;;21.90;99.90;;;;;;5056500;28;20056;-28
2023/08/17 12:04:53;;;;;;;4.03;1.10;;;21.90;99.90;;;;;;5055645;28;20071;-28
2023/08/17 12:07:21;;;;;;;4.30;1.52;;;22.10;99.90;;;;;;5053703;28;20051;-29
2023/08/17 12:09:48;;;;;;;9.82;1.85;;;22.10;99.90;;;;;;5037694;28;20043;-28
2023/08/17 12:12:18;;;;;;;5.30;1.20;;;22.10;99.90;;;;;;5054689;28;20213;-28
2023/08/17 12:14:47;;;;;;;5.00;1.40;;;22.00;99.90;;;;;;5063975;28;20128;-28
2023/08/17 12:17:20;;;;;;;3.95;1.17;;;22.10;99.90;;;;;;5055516;28;20096;-28
2023/08/17 12:19:50;;;;;;;4.93;1.30;;;22.10;99.90;;;;;;5058513;28;20041;-28
2023/08/17 12:22:17;;;;;;;6.72;1.85;;;21.90;99.90;;;;;;5056451;28;20066;-26
2023/08/17 12:24:43;;;;;;;8.85;1.90;;;21.90;99.90;;;;;;5055465;28;20062;-28
2023/08/17 12:27:10;;;;;;;7.45;1.52;;;21.80;99.90;;;;;;5061528;28;20040;-28
2023/08/17 12:29:49;;;;;;;35.13;25.50;;;22.00;99.90;;;;;;5066607;28;20045;-28
2023/08/17 12:32:17;;;;;;;8.00;2.63;;;22.20;99.90;;;;;;5060002;28;20033;-28
2023/08/17 12:34:43;;;;;;;5.43;1.63;;;22.50;99.90;;;;;;5053093;28;20049;-28
2023/08/17 12:37:12;;;;;;;6.13;1.50;;;22.80;99.90;;;;;;5055147;28;20041;-29
2023/08/17 12:39:38;;;;;;;4.90;1.55;;;22.90;51.00;;;;;;5060598;28;20363;-29
2023/08/17 12:42:07;;;;;;;4.10;1.40;;;23.00;1.00;;;;;;5074069;28;20497;-29
2023/08/17 12:44:32;;;;;;;5.40;1.58;;;22.70;1.00;;;;;;5056898;28;20076;-26
2023/08/17 12:46:58;;;;;;;6.97;1.48;;;22.40;89.60;;;;;;5071531;28;20091;-28